Time,TemperatureF,DewpointF,PressureIn,WindDirection,WindDirectionDegrees,WindSpeedMPH,WindSpeedGustMPH,Humidity,HourlyPrecipIn,Conditions,Clouds,dailyrainin,SoftwareType,DateUTC
2013-07-02 00:10:00,75.0,74.4,30.02,WNW,292,2.2,-999.0,98,-99.99,,,0.00,Acu-Link.com,2013-07-02 04:10:00,
2013-07-02 00:25:00,74.8,74.2,30.03,West,270,6.7,-999.0,98,-99.99,,,0.00,Acu-Link.com,2013-07-02 04:25:00,
2013-07-02 00:41:00,74.7,74.1,30.02,ESE,112,4.7,-999.0,98,-99.99,,,0.00,Acu-Link.com,2013-07-02 04:41:00,
2013-07-02 00:56:00,74.7,74.1,30.02,West,270,4.3,-999.0,98,-99.99,,,0.00,Acu-Link.com,2013-07-02 04:56:00,
2013-07-02 01:11:00,74.5,73.9,30.02,SSW,202,5.1,-999.0,98,-99.99,,,0.00,Acu-Link.com,2013-07-02 05:11:00,
2013-07-02 01:27:00,74.8,74.2,30.02,West,270,10.3,-999.0,98,-99.99,,,0.00,Acu-Link.com,2013-07-02 05:27:00,
2013-07-02 01:42:00,75.0,74.4,30.02,West,270,4.3,-999.0,98,-99.99,,,0.00,Acu-Link.com,2013-07-02 05:42:00,
2013-07-02 01:57:00,75.0,74.4,30.03,West,270,4.7,-999.0,98,-99.99,,,0.00,Acu-Link.com,2013-07-02 05:57:00,
2013-07-02 02:12:00,75.2,74.6,30.03,SW,225,5.1,-999.0,98,-99.99,,,0.00,Acu-Link.com,2013-07-02 06:12:00,
2013-07-02 02:28:00,75.4,74.8,30.03,NNE,22,6.3,-999.0,98,-99.99,,,0.00,Acu-Link.com,2013-07-02 06:28:00,
2013-07-02 02:43:00,75.4,74.8,30.04,SW,225,5.8,-999.0,98,-99.99,,,0.00,Acu-Link.com,2013-07-02 06:43:00,
2013-07-02 02:58:00,75.2,74.6,30.03,West,270,7.8,-999.0,98,-99.99,,,0.00,Acu-Link.com,2013-07-02 06:58:00,
2013-07-02 03:14:00,75.2,74.6,30.03,ESE,112,2.2,-999.0,98,-99.99,,,0.00,Acu-Link.com,2013-07-02 07:14:00,
2013-07-02 03:29:00,75.2,74.6,30.03,WNW,292,1.1,-999.0,98,-99.99,,,0.00,Acu-Link.com,2013-07-02 07:29:00,
2013-07-02 03:44:00,75.4,74.8,30.03,WSW,247,6.3,-999.0,98,-99.99,,,0.00,Acu-Link.com,2013-07-02 07:44:00,
2013-07-02 04:00:00,75.7,75.1,30.03,SSW,202,4.3,-999.0,98,-99.99,,,0.00,Acu-Link.com,2013-07-02 08:00:00,
2013-07-02 04:15:00,75.2,74.6,30.04,SW,225,4.7,-999.0,98,-99.99,,,0.00,Acu-Link.com,2013-07-02 08:15:00,
2013-07-02 04:30:00,75.0,74.4,30.04,SW,225,7.4,-999.0,98,-99.99,,,0.00,Acu-Link.com,2013-07-02 08:30:00,
2013-07-02 04:46:00,74.8,74.2,30.04,WSW,247,2.2,-999.0,98,-99.99,,,0.00,Acu-Link.com,2013-07-02 08:46:00,
2013-07-02 05:01:00,74.7,74.1,30.05,SSE,157,3.1,-999.0,98,-99.99,,,0.00,Acu-Link.com,2013-07-02 09:01:00,
2013-07-02 05:16:00,74.8,74.2,30.04,SW,225,3.8,-999.0,98,-99.99,,,0.00,Acu-Link.com,2013-07-02 09:16:00,
2013-07-02 05:31:00,74.7,74.1,30.06,WSW,247,1.1,-999.0,98,-99.99,,,0.00,Acu-Link.com,2013-07-02 09:31:00,
2013-07-02 05:46:00,75.0,74.4,30.06,South,180,0.0,-999.0,98,-99.99,,,0.00,Acu-Link.com,2013-07-02 09:46:00,
2013-07-02 06:02:00,75.2,74.6,30.06,SSE,157,2.2,-999.0,98,-99.99,,,0.00,Acu-Link.com,2013-07-02 10:02:00,
2013-07-02 06:17:00,75.4,74.8,30.05,South,180,4.7,-999.0,98,-99.99,,,0.00,Acu-Link.com,2013-07-02 10:17:00,
2013-07-02 06:32:00,75.6,75.0,30.06,South,180,0.0,-999.0,98,-99.99,,,0.00,Acu-Link.com,2013-07-02 10:32:00,
2013-07-02 06:47:00,75.6,75.0,30.07,SW,225,2.7,-999.0,98,-99.99,,,0.00,Acu-Link.com,2013-07-02 10:47:00,
2013-07-02 07:02:00,75.7,75.1,30.07,SSW,202,7.8,-999.0,98,-99.99,,,0.00,Acu-Link.com,2013-07-02 11:02:00,
2013-07-02 07:18:00,75.9,75.3,30.08,SSW,202,0.0,-999.0,98,-99.99,,,0.00,Acu-Link.com,2013-07-02 11:18:00,
2013-07-02 07:33:00,76.3,75.7,30.08,West,270,1.6,-999.0,98,-99.99,,,0.00,Acu-Link.com,2013-07-02 11:33:00,
2013-07-02 07:48:00,76.5,75.9,30.08,South,180,3.1,-999.0,98,-99.99,,,0.00,Acu-Link.com,2013-07-02 11:48:00,
2013-07-02 08:03:00,76.8,76.2,30.08,WSW,247,0.0,-999.0,98,-99.99,,,0.00,Acu-Link.com,2013-07-02 12:03:00,
2013-07-02 08:19:00,77.4,76.7,30.08,SSW,202,2.7,-999.0,98,-99.99,,,0.00,Acu-Link.com,2013-07-02 12:19:00,
2013-07-02 08:34:00,77.9,77.3,30.09,WNW,292,4.3,-999.0,98,-99.99,,,0.00,Acu-Link.com,2013-07-02 12:34:00,
2013-07-02 08:49:00,77.5,76.9,30.08,WSW,247,4.7,-999.0,98,-99.99,,,0.00,Acu-Link.com,2013-07-02 12:49:00,
2013-07-02 09:05:00,78.8,78.2,30.08,SSW,202,1.6,-999.0,98,-99.99,,,0.00,Acu-Link.com,2013-07-02 13:05:00,
2013-07-02 09:20:00,79.3,78.7,30.08,SSE,157,3.8,-999.0,98,-99.99,,,0.00,Acu-Link.com,2013-07-02 13:20:00,
2013-07-02 09:35:00,80.4,79.8,30.08,WNW,292,11.0,-999.0,98,-99.99,,,0.00,Acu-Link.com,2013-07-02 13:35:00,
2013-07-02 09:50:00,79.9,79.3,30.08,South,180,3.1,-999.0,98,-99.99,,,0.00,Acu-Link.com,2013-07-02 13:50:00,
2013-07-02 10:06:00,80.2,79.6,30.08,ESE,112,4.7,-999.0,98,-99.99,,,0.00,Acu-Link.com,2013-07-02 14:06:00,
2013-07-02 10:21:00,81.9,81.2,30.08,WSW,247,8.3,-999.0,98,-99.99,,,0.00,Acu-Link.com,2013-07-02 14:21:00,
2013-07-02 10:36:00,81.5,80.9,30.08,North,0,5.1,-999.0,98,-99.99,,,0.00,Acu-Link.com,2013-07-02 14:36:00,
2013-07-02 10:52:00,81.5,80.9,30.08,West,270,6.3,-999.0,98,-99.99,,,0.00,Acu-Link.com,2013-07-02 14:52:00,
2013-07-02 11:07:00,81.1,80.5,30.08,SE,135,5.8,-999.0,98,-99.99,,,0.00,Acu-Link.com,2013-07-02 15:07:00,
2013-07-02 11:22:00,82.2,81.6,30.09,NNE,22,2.2,-999.0,98,-99.99,,,0.00,Acu-Link.com,2013-07-02 15:22:00,
2013-07-02 11:37:00,82.0,81.4,30.08,West,270,3.1,-999.0,98,-99.99,,,0.00,Acu-Link.com,2013-07-02 15:37:00,
2013-07-02 11:53:00,82.6,82.0,30.09,SSE,157,3.1,-999.0,98,-99.99,,,0.00,Acu-Link.com,2013-07-02 15:53:00,
2013-07-02 12:08:00,82.6,82.0,30.09,SW,225,6.7,-999.0,98,-99.99,,,0.00,Acu-Link.com,2013-07-02 16:08:00,
2013-07-02 12:23:00,82.4,81.8,30.09,South,180,6.7,-999.0,98,-99.99,,,0.00,Acu-Link.com,2013-07-02 16:23:00,
2013-07-02 12:38:00,82.8,82.1,30.09,SW,225,5.8,-999.0,98,-99.99,,,0.00,Acu-Link.com,2013-07-02 16:38:00,
2013-07-02 12:54:00,82.2,81.6,30.09,SSW,202,5.8,-999.0,98,-99.99,,,0.00,Acu-Link.com,2013-07-02 16:54:00,
2013-07-02 13:09:00,81.9,81.2,30.08,SW,225,3.1,-999.0,98,-99.99,,,0.00,Acu-Link.com,2013-07-02 17:09:00,
2013-07-02 13:24:00,82.4,81.8,30.09,SSW,202,5.8,-999.0,98,-99.99,,,0.00,Acu-Link.com,2013-07-02 17:24:00,
2013-07-02 13:39:00,83.5,82.9,30.09,West,270,4.3,-999.0,98,-99.99,,,0.00,Acu-Link.com,2013-07-02 17:39:00,
2013-07-02 13:54:00,82.9,82.3,30.09,WNW,292,3.8,-999.0,98,-99.99,,,0.00,Acu-Link.com,2013-07-02 17:54:00,
2013-07-02 14:10:00,83.5,82.9,30.09,South,180,7.4,-999.0,98,-99.99,,,0.00,Acu-Link.com,2013-07-02 18:10:00,
2013-07-02 14:25:00,83.7,83.0,30.09,WSW,247,6.3,-999.0,98,-99.99,,,0.00,Acu-Link.com,2013-07-02 18:25:00,
2013-07-02 14:40:00,84.7,83.8,30.09,SSE,157,6.3,-999.0,97,-99.99,,,0.00,Acu-Link.com,2013-07-02 18:40:00,
2013-07-02 14:55:00,86.0,81.7,30.09,SW,225,3.8,-999.0,87,-99.99,,,0.00,Acu-Link.com,2013-07-02 18:55:00,
2013-07-02 15:10:00,84.7,83.1,30.08,South,180,5.8,-999.0,95,-99.99,,,0.00,Acu-Link.com,2013-07-02 19:10:00,
2013-07-02 15:26:00,85.3,81.3,30.08,SW,225,2.7,-999.0,88,-99.99,,,0.00,Acu-Link.com,2013-07-02 19:26:00,
2013-07-02 15:41:00,85.1,80.8,30.07,SSW,202,4.3,-999.0,87,-99.99,,,0.00,Acu-Link.com,2013-07-02 19:41:00,
2013-07-02 15:56:00,81.5,78.6,30.07,ESE,112,6.7,-999.0,91,-99.99,,,0.00,Acu-Link.com,2013-07-02 19:56:00,
2013-07-02 16:11:00,79.9,79.3,30.08,NE,45,7.8,-999.0,98,-99.99,,,0.00,Acu-Link.com,2013-07-02 20:11:00,
2013-07-02 16:27:00,78.6,78.0,30.08,ESE,112,6.7,-999.0,98,-99.99,,,0.00,Acu-Link.com,2013-07-02 20:27:00,
2013-07-02 16:42:00,77.0,76.4,30.07,SE,135,1.1,-999.0,98,-99.99,,,0.00,Acu-Link.com,2013-07-02 20:42:00,
2013-07-02 16:57:00,76.8,76.2,30.07,NE,45,6.3,-999.0,98,-99.99,,,0.00,Acu-Link.com,2013-07-02 20:57:00,
2013-07-02 17:13:00,74.8,74.2,30.08,SE,135,7.4,-999.0,98,-99.99,,,0.00,Acu-Link.com,2013-07-02 21:13:00,
2013-07-02 17:28:00,74.8,74.2,30.09,NNW,337,8.3,-999.0,98,-99.99,,,0.00,Acu-Link.com,2013-07-02 21:28:00,
2013-07-02 17:43:00,73.8,73.2,30.09,East,90,3.8,-999.0,98,-99.99,,,0.00,Acu-Link.com,2013-07-02 21:43:00,
2013-07-02 17:59:00,72.3,71.7,30.10,NE,45,6.3,-999.0,98,-99.99,,,0.00,Acu-Link.com,2013-07-02 21:59:00,
2013-07-02 18:14:00,72.1,71.5,30.10,East,90,4.3,-999.0,98,-99.99,,,0.00,Acu-Link.com,2013-07-02 22:14:00,
2013-07-02 18:29:00,71.6,71.0,30.11,South,180,4.3,-999.0,98,-99.99,,,0.00,Acu-Link.com,2013-07-02 22:29:00,
2013-07-02 18:44:00,71.2,70.6,30.11,ESE,112,5.8,-999.0,98,-99.99,,,0.00,Acu-Link.com,2013-07-02 22:44:00,
2013-07-02 19:00:00,70.9,70.3,30.11,SE,135,6.7,-999.0,98,-99.99,,,0.00,Acu-Link.com,2013-07-02 23:00:00,
2013-07-02 19:15:00,70.0,69.4,30.13,ESE,112,6.3,-999.0,98,-99.99,,,0.00,Acu-Link.com,2013-07-02 23:15:00,
2013-07-02 19:30:00,69.3,68.7,30.12,NE,45,4.7,-999.0,98,-99.99,,,0.00,Acu-Link.com,2013-07-02 23:30:00,
2013-07-02 19:45:00,68.2,67.6,30.13,ESE,112,2.7,-999.0,98,-99.99,,,0.00,Acu-Link.com,2013-07-02 23:45:00,
2013-07-02 20:00:00,67.6,67.1,30.13,ESE,112,5.1,-999.0,98,-99.99,,,0.00,Acu-Link.com,2013-07-03 00:00:00,
2013-07-02 20:16:00,66.7,66.2,30.13,NNE,22,7.8,-999.0,98,-99.99,,,0.00,Acu-Link.com,2013-07-03 00:16:00,
2013-07-02 20:31:00,66.0,65.4,30.13,NE,45,4.7,-999.0,98,-99.99,,,0.00,Acu-Link.com,2013-07-03 00:31:00,
2013-07-02 20:46:00,65.8,65.3,30.13,ESE,112,4.3,-999.0,98,-99.99,,,0.00,Acu-Link.com,2013-07-03 00:46:00,
2013-07-02 21:02:00,65.7,65.1,30.14,South,180,4.3,-999.0,98,-99.99,,,0.00,Acu-Link.com,2013-07-03 01:02:00,
2013-07-02 21:17:00,65.5,64.9,30.15,ESE,112,3.8,-999.0,98,-99.99,,,0.00,Acu-Link.com,2013-07-03 01:17:00,
2013-07-02 21:32:00,65.5,64.9,30.15,ENE,67,4.3,-999.0,98,-99.99,,,0.00,Acu-Link.com,2013-07-03 01:32:00,
2013-07-02 21:47:00,64.9,64.4,30.15,SE,135,4.3,-999.0,98,-99.99,,,0.00,Acu-Link.com,2013-07-03 01:47:00,
2013-07-02 22:03:00,64.8,64.2,30.16,ENE,67,4.7,-999.0,98,-99.99,,,0.00,Acu-Link.com,2013-07-03 02:03:00,
2013-07-02 22:33:00,64.4,63.8,30.16,ENE,67,2.7,-999.0,98,-99.99,,,0.00,Acu-Link.com,2013-07-03 02:33:00,
2013-07-02 22:48:00,63.9,63.3,30.15,East,90,4.7,-999.0,98,-99.99,,,0.00,Acu-Link.com,2013-07-03 02:48:00,
2013-07-02 23:04:00,63.5,62.9,30.15,NE,45,4.7,-999.0,98,-99.99,,,0.00,Acu-Link.com,2013-07-03 03:04:00,
2013-07-02 23:19:00,63.5,62.9,30.15,NE,45,3.8,-999.0,98,-99.99,,,0.00,Acu-Link.com,2013-07-03 03:19:00,
2013-07-02 23:34:00,63.7,63.1,30.15,East,90,4.3,-999.0,98,-99.99,,,0.00,Acu-Link.com,2013-07-03 03:34:00,
2013-07-02 23:50:00,63.5,62.9,30.16,NE,45,3.8,-999.0,98,-99.99,,,0.00,Acu-Link.com,2013-07-03 03:50:00,